Time;durP1;ratioP1;P1;durP2;ratioP2;P2;SDS_P1;SDS_P2;PMS_P1;PMS_P2;Temp;Humidity;BMP_temperature;BMP_pressure;BME280_temperature;BME280_humidity;BME280_pressure;Samples;Min_cycle;Max_cycle;Signal;HPM_P1;HPM_P2
2023/11/07 00:01:41;;;;;;;5.07;1.55;;;;;;;10.27;64.67;94276.56;5064465;28;20029;-74
2023/11/07 00:04:10;;;;;;;7.20;1.15;;;;;;;10.28;64.92;94267.50;5064591;28;20196;-74
2023/11/07 00:06:35;;;;;;;7.10;1.67;;;;;;;10.26;64.48;94283.00;5064516;28;20049;-74
2023/11/07 00:09:02;;;;;;;7.88;1.50;;;;;;;10.23;63.79;94287.03;5063244;28;20330;-74
2023/11/07 00:11:27;;;;;;;6.07;2.03;;;;;;;10.22;64.05;94290.00;5064465;28;20138;-74
2023/11/07 00:13:53;;;;;;;10.25;2.05;;;;;;;10.21;64.32;94286.53;5064253;28;20048;-74
2023/11/07 00:16:18;;;;;;;7.93;1.45;;;;;;;10.21;64.57;94299.84;5064202;28;20307;-74
2023/11/07 00:18:44;;;;;;;9.52;1.77;;;;;;;10.19;64.62;94295.94;5064352;28;20058;-74
2023/11/07 00:21:10;;;;;;;12.27;1.88;;;;;;;10.17;64.95;94298.88;5063915;28;20032;-74
2023/11/07 00:23:36;;;;;;;8.95;2.28;;;;;;;10.13;64.88;94291.78;5096558;28;20033;-74
2023/11/07 00:26:02;;;;;;;9.40;2.65;;;;;;;10.13;65.21;94302.44;5064011;28;20059;-74
2023/11/07 00:28:27;;;;;;;8.30;1.98;;;;;;;10.09;65.32;94302.25;5064162;28;20021;-74
2023/11/07 00:30:52;;;;;;;8.68;1.67;;;;;;;10.09;65.50;94307.56;5064050;28;20219;-74
2023/11/07 00:33:18;;;;;;;11.60;1.70;;;;;;;10.04;65.73;94292.50;5063881;28;20017;-74
2023/11/07 00:35:44;;;;;;;5.88;1.50;;;;;;;10.02;65.88;94297.34;5063779;28;20322;-74
2023/11/07 00:38:09;;;;;;;8.48;2.08;;;;;;;9.95;65.97;94296.16;5063761;28;20017;-74
2023/11/07 00:40:35;;;;;;;17.27;4.32;;;;;;;9.93;66.30;94293.00;5063732;28;20048;-74
2023/11/07 00:43:00;;;;;;;16.05;3.53;;;;;;;9.94;67.11;94292.72;5063648;28;20021;-74
2023/11/07 00:45:26;;;;;;;11.70;3.42;;;;;;;9.95;67.29;94298.81;5063644;28;20028;-74
2023/11/07 00:47:51;;;;;;;15.63;3.88;;;;;;;9.92;67.24;94307.41;5063640;28;20334;-74
2023/11/07 00:50:17;;;;;;;15.23;3.15;;;;;;;9.83;67.54;94307.31;5063655;28;20017;-73
2023/11/07 00:52:42;;;;;;;15.07;3.42;;;;;;;9.78;67.84;94308.19;5063457;28;20119;-73
2023/11/07 00:55:08;;;;;;;6.75;2.72;;;;;;;9.74;67.97;94309.88;5063681;28;20247;-73
2023/11/07 00:57:34;;;;;;;12.40;3.20;;;;;;;9.71;68.32;94310.47;5063516;28;20060;-74
2023/11/07 01:00:00;;;;;;;16.65;3.58;;;;;;;9.73;68.37;94313.63;5063439;28;20327;-74
2023/11/07 01:02:25;;;;;;;13.82;3.30;;;;;;;9.75;68.26;94314.13;5063284;28;20067;-74
2023/11/07 01:04:51;;;;;;;10.60;2.20;;;;;;;9.72;68.29;94320.03;5063393;28;20084;-74
2023/11/07 01:07:17;;;;;;;5.90;2.10;;;;;;;9.70;68.13;94327.53;5063442;28;20025;-74
2023/11/07 01:09:42;;;;;;;4.32;1.85;;;;;;;9.67;68.26;94328.13;5063301;28;20059;-73
2023/11/07 01:12:10;;;;;;;14.18;2.78;;;;;;;9.67;68.33;94308.69;5062031;28;20207;-74
2023/11/07 01:14:36;;;;;;;9.02;2.20;;;;;;;9.63;68.63;94319.16;5063221;28;20033;-74
2023/11/07 01:17:01;;;;;;;10.57;2.42;;;;;;;9.60;68.93;94317.84;5063123;28;20051;-74
2023/11/07 01:19:27;;;;;;;12.63;2.10;;;;;;;9.55;69.04;94323.28;5063122;28;20029;-74
2023/11/07 01:21:53;;;;;;;7.38;1.88;;;;;;;9.51;68.88;94322.28;5063189;28;20027;-74
2023/11/07 01:24:18;;;;;;;10.57;2.30;;;;;;;9.48;69.33;94314.88;5062774;28;20036;-74
2023/11/07 01:26:44;;;;;;;8.18;1.95;;;;;;;9.43;69.29;94334.41;5062890;28;20021;-73
2023/11/07 01:29:10;;;;;;;9.40;1.60;;;;;;;9.40;69.22;94329.69;5063021;28;20019;-73
2023/11/07 01:31:35;;;;;;;8.60;2.42;;;;;;;9.34;69.33;94335.38;5062879;28;20021;-73
2023/11/07 01:34:01;;;;;;;11.10;2.05;;;;;;;9.30;69.65;94339.69;5061795;28;20036;-74
2023/11/07 01:36:26;;;;;;;14.23;2.15;;;;;;;9.27;69.81;94340.28;5062763;28;20084;-74
2023/11/07 01:38:52;;;;;;;10.82;2.05;;;;;;;9.24;69.61;94337.13;5062742;28;20041;-74
2023/11/07 01:41:18;;;;;;;8.30;1.60;;;;;;;9.21;70.19;94344.91;5062735;28;20021;-74
2023/11/07 01:43:44;;;;;;;14.60;2.20;;;;;;;9.20;70.04;94344.13;5062738;28;20017;-72
2023/11/07 01:46:09;;;;;;;5.03;1.30;;;;;;;9.17;70.20;94347.34;5062752;28;20032;-73
2023/11/07 01:48:36;;;;;;;12.90;1.90;;;;;;;9.12;70.59;94341.31;5061519;28;20223;-74
2023/11/07 01:51:03;;;;;;;12.95;2.22;;;;;;;9.11;70.61;94347.75;5062572;28;20024;-74
2023/11/07 01:53:29;;;;;;;8.98;2.47;;;;;;;9.09;70.59;94344.56;5062413;28;20024;-74
2023/11/07 01:55:57;;;;;;;7.57;1.67;;;;;;;9.04;70.69;94338.25;5062447;28;20264;-74
2023/11/07 01:58:23;;;;;;;11.48;2.20;;;;;;;9.04;70.80;94335.59;5062631;28;20060;-74
2023/11/07 02:00:53;;;;;;;8.63;1.67;;;;;;;9.01;70.84;94340.72;5062577;28;20025;-74
2023/11/07 02:03:20;;;;;;;5.55;1.33;;;;;;;8.95;70.83;94340.00;5062643;28;20204;-74
2023/11/07 02:05:46;;;;;;;6.57;2.38;;;;;;;8.90;71.34;94336.66;5062423;28;20394;-74
2023/11/07 02:08:11;;;;;;;13.05;2.97;;;;;;;8.88;71.42;94338.81;5061293;28;20016;-74
2023/11/07 02:10:37;;;;;;;11.45;2.85;;;;;;;8.85;71.58;94345.47;5095045;28;20308;-74
2023/11/07 02:13:02;;;;;;;9.27;2.22;;;;;;;8.81;71.76;94339.16;5062751;28;20013;-74
2023/11/07 02:15:31;;;;;;;15.15;3.58;;;;;;;8.76;71.91;94347.22;5062525;28;20323;-74
2023/11/07 02:17:57;;;;;;;10.35;2.88;;;;;;;8.75;72.51;94342.97;5062444;28;20009;-73
2023/11/07 02:20:23;;;;;;;14.45;2.55;;;;;;;8.72;72.53;94340.91;5062448;28;20048;-73
2023/11/07 02:22:57;;;;;;;9.18;2.90;;;;;;;8.68;72.58;94337.25;5061195;28;20017;-74
2023/11/07 02:25:22;;;;;;;10.48;2.53;;;;;;;8.67;72.80;94338.31;5062512;28;20216;-73
2023/11/07 02:27:48;;;;;;;13.10;2.88;;;;;;;8.65;72.96;94346.59;5062357;28;20024;-73
2023/11/07 02:30:14;;;;;;;9.90;3.15;;;;;;;8.61;72.91;94341.06;5062286;28;20250;-74
2023/11/07 02:32:40;;;;;;;9.88;2.22;;;;;;;8.61;72.95;94349.03;5062432;28;20074;-74
2023/11/07 02:35:06;;;;;;;11.13;2.75;;;;;;;8.60;72.92;94347.44;5062283;28;20040;-74
2023/11/07 02:37:32;;;;;;;7.38;2.53;;;;;;;8.59;72.70;94356.50;5062369;28;20271;-74
2023/11/07 02:39:58;;;;;;;12.55;2.75;;;;;;;8.59;72.40;94355.72;5061984;28;20107;-74
2023/11/07 02:42:25;;;;;;;7.57;2.42;;;;;;;8.56;72.76;94359.72;5062267;28;20095;-74
2023/11/07 02:44:50;;;;;;;14.48;2.53;;;;;;;8.51;73.02;94357.16;5062321;28;20017;-74
2023/11/07 02:47:15;;;;;;;9.40;2.65;;;;;;;8.51;73.19;94362.47;5062086;28;20021;-74
2023/11/07 02:49:41;;;;;;;11.00;2.28;;;;;;;8.49;73.32;94351.34;5062251;28;20024;-74
2023/11/07 02:52:06;;;;;;;11.43;2.80;;;;;;;8.51;73.66;94351.03;5062072;28;20017;-74
2023/11/07 02:54:32;;;;;;;18.65;3.53;;;;;;;8.54;73.43;94355.78;5062281;28;20020;-74
2023/11/07 02:56:57;;;;;;;14.90;3.25;;;;;;;8.54;73.26;94340.63;5061044;28;20268;-74
2023/11/07 02:59:22;;;;;;;20.25;3.00;;;;;;;8.58;73.04;94344.28;5062032;28;20079;-73
2023/11/07 03:01:51;;;;;;;14.95;2.75;;;;;;;8.58;72.80;94341.63;5062059;28;20087;-74
2023/11/07 03:04:17;;;;;;;12.80;3.47;;;;;;;8.57;72.80;94345.38;5062032;28;20096;-75
2023/11/07 03:06:43;;;;;;;8.52;3.22;;;;;;;8.54;72.76;94351.25;5064283;28;20025;-74
2023/11/07 03:09:10;;;;;;;13.48;3.10;;;;;;;8.52;73.11;94358.72;5065760;28;20083;-74
2023/11/07 03:11:35;;;;;;;10.38;3.55;;;;;;;8.53;73.21;94349.69;5065483;28;20066;-75
2023/11/07 03:14:00;;;;;;;17.10;3.85;;;;;;;8.51;73.38;94362.47;5065834;28;20056;-74
2023/11/07 03:16:26;;;;;;;10.50;3.88;;;;;;;8.51;73.23;94357.16;5065406;28;20083;-74
2023/11/07 03:18:52;;;;;;;13.20;3.22;;;;;;;8.49;72.98;94364.63;5065423;28;20192;-74
2023/11/07 03:21:18;;;;;;;13.38;2.35;;;;;;;8.43;72.81;94358.56;5065137;28;20035;-75
2023/11/07 03:23:44;;;;;;;8.93;2.88;;;;;;;8.38;73.18;94355.16;5065436;28;20338;-75
2023/11/07 03:26:10;;;;;;;7.53;2.35;;;;;;;8.33;73.43;94360.56;5065375;28;20025;-75
2023/11/07 03:28:35;;;;;;;10.75;3.45;;;;;;;8.31;73.72;94355.53;5065169;28;20040;-75
2023/11/07 03:31:01;;;;;;;8.48;2.88;;;;;;;8.26;74.33;94360.88;5065436;28;20027;-73
2023/11/07 03:33:26;;;;;;;14.00;3.90;;;;;;;8.26;74.60;94366.19;5065203;28;20362;-73
2023/11/07 03:35:52;;;;;;;10.43;3.80;;;;;;;8.25;74.68;94354.00;5065059;28;20032;-73
2023/11/07 03:38:17;;;;;;;8.35;3.25;;;;;;;8.28;74.74;94363.28;5064908;28;20083;-73
2023/11/07 03:40:43;;;;;;;7.25;3.17;;;;;;;8.26;74.94;94357.44;5064854;28;20025;-73
2023/11/07 03:43:08;;;;;;;11.88;3.53;;;;;;;8.28;74.67;94363.28;5097332;28;20044;-73
2023/11/07 03:45:34;;;;;;;11.63;2.72;;;;;;;8.30;74.54;94369.09;5063896;28;20024;-73
2023/11/07 03:47:59;;;;;;;8.48;3.28;;;;;;;8.29;74.43;94354.25;5065077;28;20095;-73
2023/11/07 03:50:24;;;;;;;17.33;3.03;;;;;;;8.28;74.31;94365.91;5064780;28;20233;-75
2023/11/07 03:52:50;;;;;;;10.27;3.22;;;;;;;8.26;74.39;94378.69;5064895;28;20023;-75
2023/11/07 03:55:16;;;;;;;15.95;3.17;;;;;;;8.25;74.16;94375.25;5064791;28;20222;-75
2023/11/07 03:57:42;;;;;;;6.80;2.47;;;;;;;8.26;74.20;94374.16;5097229;28;20025;-75
2023/11/07 04:00:10;;;;;;;8.65;2.63;;;;;;;8.26;74.38;94389.31;5063525;28;20360;-75
2023/11/07 04:02:36;;;;;;;13.30;3.28;;;;;;;8.24;74.36;94379.78;5064618;28;20323;-75
2023/11/07 04:05:01;;;;;;;13.05;2.72;;;;;;;8.24;74.58;94379.78;5064785;28;20059;-75
2023/11/07 04:07:26;;;;;;;8.88;2.35;;;;;;;8.26;74.18;94376.03;5064476;28;20025;-75
2023/11/07 04:09:52;;;;;;;8.05;2.60;;;;;;;8.25;73.98;94372.59;5064581;28;20079;-74
2023/11/07 04:12:17;;;;;;;9.10;2.75;;;;;;;8.26;74.09;94373.38;5064298;28;20025;-74
2023/11/07 04:14:45;;;;;;;13.50;2.67;;;;;;;8.23;74.11;94378.19;5064500;28;20215;-74
2023/11/07 04:17:11;;;;;;;14.23;4.43;;;;;;;8.22;74.03;94383.78;5063904;28;20047;-74
2023/11/07 04:19:36;;;;;;;9.25;3.08;;;;;;;8.18;73.97;94380.94;5064232;28;20025;-74
2023/11/07 04:22:04;;;;;;;10.13;2.50;;;;;;;8.12;74.14;94382.06;5064431;28;20021;-75
2023/11/07 04:24:30;;;;;;;14.73;2.97;;;;;;;8.08;74.42;94389.00;5096895;28;20196;-75
2023/11/07 04:26:57;;;;;;;12.77;2.85;;;;;;;8.06;74.43;94385.03;5064131;28;20062;-75
2023/11/07 04:29:23;;;;;;;8.77;2.30;;;;;;;8.02;74.55;94376.88;5064032;28;20044;-75
2023/11/07 04:31:49;;;;;;;14.40;3.17;;;;;;;8.00;74.41;94389.66;5062911;28;20326;-75
2023/11/07 04:34:14;;;;;;;17.95;3.72;;;;;;;7.97;74.77;94384.88;5064038;28;20039;-75
2023/11/07 04:36:39;;;;;;;15.35;3.17;;;;;;;7.96;75.23;94385.97;5063948;28;20040;-74
2023/11/07 04:39:06;;;;;;;16.65;3.33;;;;;;;7.96;75.14;94380.66;5063848;28;20044;-74
2023/11/07 04:41:35;;;;;;;14.18;2.88;;;;;;;7.95;74.94;94382.50;5064023;28;20031;-74
2023/11/07 04:44:02;;;;;;;11.93;2.83;;;;;;;7.95;75.18;94387.03;5064028;28;20281;-74
2023/11/07 04:46:28;;;;;;;17.25;3.13;;;;;;;7.93;75.15;94382.00;5063864;28;20212;-75
2023/11/07 04:48:54;;;;;;;12.50;2.85;;;;;;;7.91;75.05;94386.81;5063876;28;20037;-75
2023/11/07 04:51:20;;;;;;;9.95;3.08;;;;;;;7.90;75.33;94384.44;5062678;28;20037;-76
2023/11/07 04:53:46;;;;;;;6.68;2.45;;;;;;;7.89;75.52;94388.16;5095971;28;20307;-75
2023/11/07 04:56:12;;;;;;;10.57;3.13;;;;;;;7.89;75.29;94388.16;5096129;28;20047;-75
2023/11/07 04:58:37;;;;;;;10.23;3.45;;;;;;;7.86;75.21;94389.53;5063672;28;20329;-76
2023/11/07 05:01:05;;;;;;;14.43;3.53;;;;;;;7.80;75.34;94391.44;5063330;28;20037;-76
2023/11/07 05:03:31;;;;;;;15.48;2.85;;;;;;;7.81;75.44;94403.63;5063792;28;20028;-76
2023/11/07 05:05:58;;;;;;;9.98;2.72;;;;;;;7.76;75.43;94397.59;5063624;28;20105;-75
2023/11/07 05:08:23;;;;;;;12.10;3.42;;;;;;;7.74;75.83;94403.19;5063389;28;20099;-75
2023/11/07 05:10:49;;;;;;;12.90;2.90;;;;;;;7.69;76.25;94407.75;5063170;28;20100;-74
2023/11/07 05:13:14;;;;;;;12.52;2.95;;;;;;;7.66;76.36;94403.00;5063388;28;20027;-74
2023/11/07 05:15:42;;;;;;;13.70;3.20;;;;;;;7.67;76.20;94394.75;5063271;28;20021;-74
2023/11/07 05:18:09;;;;;;;9.80;3.53;;;;;;;7.69;76.44;94402.44;5063201;28;20027;-76
2023/11/07 05:20:36;;;;;;;9.30;3.33;;;;;;;7.71;76.67;94414.34;5061973;28;20056;-75
2023/11/07 05:23:01;;;;;;;9.95;3.15;;;;;;;7.68;76.83;94409.63;5063398;28;20032;-75
2023/11/07 05:25:27;;;;;;;11.07;2.97;;;;;;;7.68;77.01;94416.78;5063122;28;20025;-75
2023/11/07 05:27:52;;;;;;;10.75;2.92;;;;;;;7.66;77.19;94421.59;5062656;28;20021;-75
2023/11/07 05:30:18;;;;;;;13.88;3.95;;;;;;;7.68;77.31;94419.44;5095317;28;20024;-76
2023/11/07 05:32:46;;;;;;;10.30;3.33;;;;;;;7.66;77.33;94422.38;5062972;28;20025;-76
2023/11/07 05:35:12;;;;;;;17.80;4.75;;;;;;;7.67;77.62;94426.59;5095335;28;20107;-75
2023/11/07 05:37:39;;;;;;;16.40;3.83;;;;;;;7.70;77.69;94433.22;5062632;28;20323;-75
2023/11/07 05:40:05;;;;;;;27.52;4.50;;;;;;;7.70;77.92;94441.97;5062679;28;20078;-75
2023/11/07 05:42:31;;;;;;;14.68;4.20;;;;;;;7.72;77.74;94441.69;5062938;28;20021;-75
2023/11/07 05:44:57;;;;;;;25.42;4.47;;;;;;;7.76;77.87;94446.16;5062735;28;20402;-74
2023/11/07 05:47:22;;;;;;;15.52;4.22;;;;;;;7.78;77.71;94457.28;5062687;28;20311;-74
2023/11/07 05:49:50;;;;;;;12.02;4.93;;;;;;;7.76;78.14;94456.75;5062823;28;20112;-74
2023/11/07 05:52:16;;;;;;;15.75;4.57;;;;;;;7.82;78.25;94460.94;5062479;28;20043;-74
2023/11/07 05:54:42;;;;;;;25.70;5.03;;;;;;;7.88;78.55;94456.38;5062536;28;20053;-75
2023/11/07 05:57:08;;;;;;;24.35;4.90;;;;;;;7.94;78.52;94460.56;5062294;28;20355;-76
2023/11/07 05:59:34;;;;;;;15.18;4.78;;;;;;;7.99;78.78;94457.06;5062271;28;20039;-76
2023/11/07 06:01:59;;;;;;;13.90;4.68;;;;;;;8.07;78.27;94472.38;5062766;28;20021;-75
2023/11/07 06:04:30;;;;;;;14.02;4.93;;;;;;;8.12;78.07;94475.00;5063008;28;20100;-77
2023/11/07 06:06:57;;;;;;;10.43;4.80;;;;;;;8.17;77.77;94490.84;5062426;28;20074;-78
2023/11/07 06:09:22;;;;;;;12.10;5.47;;;;;;;8.18;77.74;94491.63;5094860;28;20040;-78
2023/11/07 06:11:48;;;;;;;14.15;4.70;;;;;;;8.23;77.70;94486.28;5062675;28;20016;-78
2023/11/07 06:14:13;;;;;;;19.38;4.20;;;;;;;8.29;77.63;94489.69;5061948;28;20421;-77
2023/11/07 06:16:39;;;;;;;13.82;4.53;;;;;;;8.33;77.57;94488.84;5060858;28;20024;-77
2023/11/07 06:19:05;;;;;;;16.80;4.43;;;;;;;8.37;77.50;94486.41;5062111;28;20025;-77
2023/11/07 06:21:30;;;;;;;17.25;5.25;;;;;;;8.41;77.43;94490.91;5059944;28;20094;-77
2023/11/07 06:23:55;;;;;;;17.20;4.72;;;;;;;8.50;77.02;94491.03;5061907;28;20056;-77
2023/11/07 06:26:21;;;;;;;25.67;4.45;;;;;;;8.55;76.52;94493.66;5061861;28;20224;-77
2023/11/07 06:28:48;;;;;;;21.13;6.05;;;;;;;8.58;76.62;94495.72;5062196;28;20378;-77
2023/11/07 06:31:24;;;;;;;19.63;5.78;;;;;;;8.61;77.69;94505.81;5062456;28;20325;-77
2023/11/07 06:33:49;;;;;;;23.33;5.82;;;;;;;8.66;77.86;94512.91;5094502;28;20330;-78
2023/11/07 06:36:15;;;;;;;27.40;8.20;;;;;;;8.72;77.74;94514.44;5060723;28;20023;-78
2023/11/07 06:38:40;;;;;;;38.85;10.43;;;;;;;8.79;77.44;94511.44;5060331;28;20044;-77
2023/11/07 06:41:07;;;;;;;25.13;8.60;;;;;;;8.78;77.46;94507.97;5063432;28;20041;-77
2023/11/07 06:43:33;;;;;;;21.42;6.57;;;;;;;8.83;77.50;94512.44;5064797;28;20365;-78
2023/11/07 06:45:59;;;;;;;27.70;6.05;;;;;;;8.88;77.92;94520.34;5065380;28;20025;-78
2023/11/07 06:48:26;;;;;;;21.75;6.47;;;;;;;8.93;77.87;94522.94;5065485;28;20021;-78
2023/11/07 06:50:51;;;;;;;17.00;6.03;;;;;;;9.02;77.83;94518.56;5065523;28;20371;-78
2023/11/07 06:53:17;;;;;;;22.08;7.32;;;;;;;9.13;77.70;94515.78;5065900;28;20026;-78
2023/11/07 06:55:42;;;;;;;21.40;6.85;;;;;;;9.17;77.75;94520.22;5065966;28;20017;-78
2023/11/07 06:58:09;;;;;;;23.35;7.07;;;;;;;9.30;77.42;94516.06;5065779;28;20021;-78
2023/11/07 07:00:37;;;;;;;33.40;7.97;;;;;;;9.36;77.23;94524.75;5065855;28;20275;-78
2023/11/07 07:03:02;;;;;;;18.55;6.53;;;;;;;9.46;77.32;94521.16;5065878;28;20025;-77
2023/11/07 07:05:28;;;;;;;27.60;7.28;;;;;;;9.55;77.24;94525.53;5065672;28;20227;-78
2023/11/07 07:07:54;;;;;;;33.70;6.60;;;;;;;9.65;77.02;94524.59;5064406;28;20032;-78
2023/11/07 07:10:19;;;;;;;23.58;7.95;;;;;;;9.72;75.75;94525.00;5065698;28;20016;-78
2023/11/07 07:12:45;;;;;;;20.63;6.95;;;;;;;9.77;75.16;94519.59;5065502;28;20325;-77
2023/11/07 07:15:11;;;;;;;24.42;8.25;;;;;;;9.88;75.10;94525.53;5065490;28;20311;-78
2023/11/07 07:17:37;;;;;;;20.25;7.32;;;;;;;9.88;73.72;94525.53;5065662;28;20035;-78
2023/11/07 07:20:11;;;;;;;21.95;6.25;;;;;;;9.88;73.51;94527.44;5065674;28;20029;-77
2023/11/07 07:22:44;;;;;;;35.70;8.77;;;;;;;10.03;74.09;94538.63;5065336;28;20200;-78
2023/11/07 07:25:15;;;;;;;29.17;7.93;;;;;;;10.10;74.54;94534.78;5065307;28;20021;-77
2023/11/07 07:27:44;;;;;;;26.83;9.20;;;;;;;10.17;73.61;94527.97;5065310;28;20021;-77
2023/11/07 07:30:20;;;;;;;23.13;8.27;;;;;;;10.22;73.25;94527.88;5065314;28;20051;-78
2023/11/07 07:32:47;;;;;;;30.00;8.82;;;;;;;10.33;73.06;94525.06;5065045;28;20043;-78
2023/11/07 07:35:15;;;;;;;32.10;7.50;;;;;;;10.46;72.60;94531.50;5064976;28;20047;-78
2023/11/07 07:37:43;;;;;;;20.30;7.68;;;;;;;10.58;71.56;94534.44;5065073;28;20109;-77
2023/11/07 07:40:10;;;;;;;20.95;7.13;;;;;;;10.73;71.37;94534.16;5064890;28;20037;-77
2023/11/07 07:42:35;;;;;;;23.25;7.15;;;;;;;10.86;70.69;94529.91;5064986;28;20025;-77
2023/11/07 07:45:07;;;;;;;26.05;6.82;;;;;;;10.99;70.16;94528.31;5065156;28;20098;-77
2023/11/07 07:47:35;;;;;;;23.75;8.48;;;;;;;11.12;69.71;94529.38;5063893;28;20044;-77
2023/11/07 07:50:01;;;;;;;20.42;7.30;;;;;;;11.24;69.29;94527.00;5065090;28;20066;-77
2023/11/07 07:52:31;;;;;;;19.08;5.60;;;;;;;11.37;67.56;94520.81;5063917;28;20108;-77
2023/11/07 07:54:57;;;;;;;28.80;6.18;;;;;;;11.48;64.66;94529.41;5064513;28;20041;-77
2023/11/07 07:57:22;;;;;;;21.80;5.97;;;;;;;11.55;65.39;94527.06;5064883;28;20059;-77
2023/11/07 07:59:48;;;;;;;21.77;6.85;;;;;;;11.66;64.73;94519.63;5064584;28;20021;-77
2023/11/07 08:02:13;;;;;;;27.05;7.40;;;;;;;11.74;64.57;94518.09;5064889;28;20021;-77
2023/11/07 08:04:39;;;;;;;31.17;6.72;;;;;;;11.83;64.80;94519.75;5064662;28;20330;-77
2023/11/07 08:07:05;;;;;;;18.67;6.70;;;;;;;11.93;64.64;94516.06;5064571;28;20055;-77
2023/11/07 08:09:30;;;;;;;17.27;6.57;;;;;;;12.02;63.79;94514.22;5063862;28;20025;-77
2023/11/07 08:12:00;;;;;;;26.65;6.28;;;;;;;12.18;62.84;94508.50;5064432;28;20216;-77
2023/11/07 08:14:26;;;;;;;17.63;5.97;;;;;;;12.36;62.92;94517.41;5064343;28;20078;-77
2023/11/07 08:16:52;;;;;;;15.43;5.90;;;;;;;12.50;62.53;94504.72;5064578;28;20035;-77
2023/11/07 08:19:20;;;;;;;14.32;5.35;;;;;;;12.66;61.92;94510.44;5064348;28;20021;-77
2023/11/07 08:21:46;;;;;;;17.92;6.07;;;;;;;12.74;61.74;94506.19;5064447;28;20020;-77
2023/11/07 08:24:13;;;;;;;15.88;6.50;;;;;;;12.86;60.93;94506.38;5064284;28;20017;-77
2023/11/07 08:26:38;;;;;;;16.95;4.78;;;;;;;12.95;60.60;94493.84;5064490;28;20021;-77
2023/11/07 08:29:06;;;;;;;15.50;4.43;;;;;;;13.08;60.00;94494.00;5064058;28;20204;-77
2023/11/07 08:31:34;;;;;;;25.08;5.90;;;;;;;13.19;60.00;94487.25;5064136;28;20088;-77
2023/11/07 08:34:00;;;;;;;16.92;6.82;;;;;;;13.30;58.84;94501.94;5064261;28;20036;-77
2023/11/07 08:36:28;;;;;;;21.92;6.00;;;;;;;13.38;58.78;94498.47;5063984;28;20196;-77
2023/11/07 08:38:54;;;;;;;22.40;6.18;;;;;;;13.49;58.83;94498.94;5063871;28;20037;-77
2023/11/07 08:41:20;;;;;;;28.48;6.18;;;;;;;13.58;58.37;94493.59;5064041;28;20041;-77
2023/11/07 08:43:46;;;;;;;30.90;7.72;;;;;;;13.67;58.53;94489.00;5063981;28;20373;-77
2023/11/07 08:46:18;;;;;;;15.95;5.32;;;;;;;13.79;58.20;94486.47;5063895;28;20025;-77
2023/11/07 08:48:44;;;;;;;;;;;;;;;13.89;57.82;94487.25;5064295;28;20020;-78
2023/11/07 08:51:09;;;;;;;27.50;5.00;;;;;;;13.94;58.09;94485.22;5063984;28;19939;-77
2023/11/07 08:53:35;;;;;;;13.50;5.00;;;;;;;14.07;57.75;94488.78;5062766;28;20250;-77
2023/11/07 08:56:00;;;;;;;17.73;4.70;;;;;;;14.16;57.55;94494.91;5063714;28;20021;-77
2023/11/07 08:58:28;;;;;;;12.23;4.68;;;;;;;14.25;57.14;94490.31;5063714;28;20023;-77
2023/11/07 09:00:57;;;;;;;12.85;4.20;;;;;;;14.35;56.58;94491.06;5063463;28;20318;-77
2023/11/07 09:03:22;;;;;;;14.77;3.70;;;;;;;14.48;55.28;94503.47;5063490;28;20044;-78
2023/11/07 09:05:48;;;;;;;18.17;4.28;;;;;;;14.56;54.36;94491.19;5063586;28;20021;-77
2023/11/07 09:08:13;;;;;;;11.50;3.25;;;;;;;14.67;53.75;94496.97;5063524;28;20025;-77
2023/11/07 09:10:39;;;;;;;9.98;2.67;;;;;;;14.75;53.35;94502.28;5063425;28;20071;-77
2023/11/07 09:13:07;;;;;;;10.45;3.50;;;;;;;14.84;52.03;94491.53;5063538;28;20032;-77
2023/11/07 09:15:32;;;;;;;19.20;4.03;;;;;;;14.91;51.46;94486.41;5063414;28;20020;-77
2023/11/07 09:17:58;;;;;;;14.13;3.45;;;;;;;14.97;51.62;94478.97;5063388;28;20195;-77
2023/11/07 09:20:24;;;;;;;12.25;3.67;;;;;;;15.07;52.02;94480.50;5063091;28;20024;-77
2023/11/07 09:22:49;;;;;;;22.52;3.40;;;;;;;15.18;51.94;94478.97;5063276;28;20341;-77
2023/11/07 09:25:15;;;;;;;18.10;3.92;;;;;;;15.25;51.72;94476.59;5063096;28;20032;-77
2023/11/07 09:27:41;;;;;;;15.07;3.42;;;;;;;15.41;51.08;94479.47;5062698;28;20353;-77
2023/11/07 09:30:11;;;;;;;10.75;3.47;;;;;;;15.55;51.06;94471.13;5063055;28;20214;-77
2023/11/07 09:32:38;;;;;;;12.43;3.58;;;;;;;15.69;50.91;94463.56;5063097;28;20027;-78
2023/11/07 09:35:06;;;;;;;12.75;3.50;;;;;;;15.84;50.16;94462.22;5063015;28;20259;-78
2023/11/07 09:37:31;;;;;;;14.10;4.55;;;;;;;15.90;49.39;94470.84;5063158;28;20084;-78
2023/11/07 09:39:57;;;;;;;17.15;4.43;;;;;;;16.03;48.12;94464.38;5062720;28;20208;-77
2023/11/07 09:42:22;;;;;;;23.95;4.15;;;;;;;16.13;47.92;94461.25;5062740;28;20025;-78
2023/11/07 09:44:49;;;;;;;27.00;4.30;;;;;;;16.25;48.74;94455.91;5061702;28;20257;-77
2023/11/07 09:47:16;;;;;;;13.65;4.43;;;;;;;16.36;48.50;94464.31;5063011;28;20049;-78
2023/11/07 09:49:41;;;;;;;17.08;4.43;;;;;;;16.46;47.29;94460.41;5062840;28;20066;-78
2023/11/07 09:52:07;;;;;;;16.48;5.85;;;;;;;16.58;47.59;94452.34;5062580;28;20095;-77
2023/11/07 09:54:34;;;;;;;23.20;5.72;;;;;;;16.65;47.53;94455.28;5062915;28;20045;-78
2023/11/07 09:57:06;;;;;;;9.32;4.30;;;;;;;16.78;48.17;94455.28;5062958;28;20319;-78
2023/11/07 09:59:41;;;;;;;;;;;;;;;16.84;46.78;94438.56;5063158;28;20235;-78
2023/11/07 10:02:07;;;;;;;13.18;4.90;;;;;;;16.90;47.74;94435.66;5062772;28;19962;-78
2023/11/07 10:04:38;;;;;;;17.73;5.22;;;;;;;17.02;47.90;94422.97;5095171;28;20075;-78
2023/11/07 10:07:04;;;;;;;21.20;5.78;;;;;;;17.11;46.65;94416.66;5062192;28;20041;-78
2023/11/07 10:09:31;;;;;;;15.98;4.63;;;;;;;17.15;46.81;94420.22;5061572;28;20029;-78
2023/11/07 10:11:58;;;;;;;25.83;5.38;;;;;;;17.19;46.83;94411.13;5061566;28;20048;-78
2023/11/07 10:14:24;;;;;;;15.52;4.78;;;;;;;17.31;47.27;94402.22;5061737;28;20337;-78
2023/11/07 10:16:52;;;;;;;28.05;5.45;;;;;;;17.41;47.15;94407.13;5066791;28;20029;-78
2023/11/07 10:19:22;;;;;;;35.47;5.22;;;;;;;17.54;47.62;94397.06;5066598;28;20036;-77
2023/11/07 10:21:48;;;;;;;20.98;5.13;;;;;;;17.62;46.97;94400.75;5066411;28;20035;-78
2023/11/07 10:24:14;;;;;;;19.60;5.13;;;;;;;17.63;46.15;94391.56;5066487;28;20214;-78
2023/11/07 10:26:58;;;;;;;11.95;4.25;;;;;;;17.65;45.99;94397.38;5066561;28;20025;-78
2023/11/07 10:29:30;;;;;;;15.18;3.75;;;;;;;17.72;46.25;94389.47;5066622;28;20021;-78
2023/11/07 10:32:10;;;;;;;15.82;4.93;;;;;;;17.80;45.63;94374.28;5066492;28;20024;-78
2023/11/07 10:34:36;;;;;;;21.92;4.28;;;;;;;17.76;45.11;94376.88;5066405;28;20282;-78
2023/11/07 10:37:04;;;;;;;27.10;4.65;;;;;;;17.77;44.62;94375.75;5066598;28;20013;-78
2023/11/07 10:39:33;;;;;;;15.52;4.55;;;;;;;17.77;44.66;94366.88;5065177;28;20037;-78
2023/11/07 10:42:20;;;;;;;15.85;4.95;;;;;;;17.69;44.45;94360.53;5066305;28;20033;-77
2023/11/07 10:44:48;;;;;;;18.55;4.47;;;;;;;17.74;44.46;94364.88;5066346;28;20029;-78
2023/11/07 10:47:14;;;;;;;17.25;4.40;;;;;;;17.82;45.09;94356.59;5066039;28;20035;-78
2023/11/07 10:49:44;;;;;;;23.08;4.10;;;;;;;17.89;43.92;94355.25;5066142;28;20025;-78
2023/11/07 10:52:10;;;;;;;19.00;3.72;;;;;;;17.96;43.03;94352.75;5065929;28;20088;-77
2023/11/07 10:54:35;;;;;;;29.58;3.97;;;;;;;17.98;42.90;94345.09;5065950;28;20029;-78
2023/11/07 10:57:12;;;;;;;17.35;5.07;;;;;;;18.02;43.66;94343.25;5065972;28;20032;-77
2023/11/07 10:59:42;;;;;;;17.08;4.80;;;;;;;18.09;42.68;94335.34;5065798;28;20275;-78
2023/11/07 11:02:10;;;;;;;21.45;5.40;;;;;;;18.16;42.69;94330.13;5065709;28;20026;-77
2023/11/07 11:04:38;;;;;;;16.45;4.00;;;;;;;18.25;42.12;94341.50;5065772;28;20021;-77
2023/11/07 11:07:07;;;;;;;21.30;7.32;;;;;;;18.20;42.62;94330.22;5065666;28;20337;-77
2023/11/07 11:09:34;;;;;;;20.45;5.25;;;;;;;18.29;43.33;94324.63;5065590;28;20025;-78
2023/11/07 11:12:02;;;;;;;13.60;3.70;;;;;;;18.42;42.94;94326.09;5065848;28;20024;-77
2023/11/07 11:14:29;;;;;;;12.43;3.33;;;;;;;18.50;41.13;94325.13;5066091;28;20044;-78
2023/11/07 11:17:04;;;;;;;11.00;3.35;;;;;;;18.41;41.00;94327.22;5065828;28;20025;-77
2023/11/07 11:19:42;;;;;;;13.10;3.38;;;;;;;18.38;40.81;94317.13;5064504;28;20103;-77
2023/11/07 11:22:26;;;;;;;17.83;3.65;;;;;;;18.36;40.10;94322.06;5065602;28;20025;-78
2023/11/07 11:25:20;;;;;;;16.33;3.03;;;;;;;18.18;40.57;94318.97;5065591;28;20032;-78
2023/11/07 11:27:51;;;;;;;13.07;3.33;;;;;;;18.13;42.00;94320.00;5062917;28;20037;-78
2023/11/07 11:30:17;;;;;;;8.57;2.97;;;;;;;18.22;42.35;94311.75;5065548;28;20028;-77